CheckWX is a tool to help pilots better visualize weather data.  It is not intended as a substitute for an official pre-flight weather briefing.

07:38:53 UTC

OMSJ METAR
Sharjah International Airport
Sharjah, United Arab Emirates
Current

39 mins ago

OMSJ 230700Z VRB03KT CAVOK 27/17 Q1020 NOSIG
Observed
Feb-23 @ 07:00 UTC
Wind
  • Variable at 3 KTS
Visibility
10,000+ meters
Flight Rules
VFR
Cloud Levels
  • Clear skies
Temperature
27°C / 81°F
Dewpoint
17°C / 63°F
Heat Index
28°C / 82°F
Humidity
54%
Altimeter
30.12" Hg
Pressure
1019.92 hPa
Previous

2 hours ago

OMSJ 230600Z 20005KT 160V230 CAVOK 26/18 Q1020 NOSIG
Observed
Feb-23 @ 06:00 UTC
Wind
  • 200° at 5 KTS
Visibility
10,000+ meters
Flight Rules
VFR
Cloud Levels
  • Clear skies
Temperature
26°C / 79°F
Dewpoint
18°C / 64°F
Humidity
61%
Altimeter
30.12" Hg
Pressure
1019.92 hPa
Previous

3 hours ago

OMSJ 230500Z 13004KT 100V180 CAVOK 24/17 Q1019 NOSIG
Observed
Feb-23 @ 05:00 UTC
Wind
  • 130° at 4 KTS
Visibility
10,000+ meters
Flight Rules
VFR
Cloud Levels
  • Clear skies
Temperature
24°C / 75°F
Dewpoint
17°C / 63°F
Humidity
65%
Altimeter
30.09" Hg
Pressure
1018.92 hPa